EPKK/KRK METAR and TAF weather

Enter ICAO airport designator
Station Type Date Time Source
EPKK METAR 2019/02/21 12:30 UTC NOAA

EPKK 211230Z 23014KT 9999 BKN040 09/01 Q1022


Station Type Date Time Source
EPKK Decoded METAR 2019/02/21 12:30 UTC NOAA

Krakow, Poland (EPKK) 50-05N 019-48E 237M
Feb 21, 2019 - 07:30 AM EST / 2019.02.21 1230 UTC
Wind: from the SW (230 degrees) at 16 MPH (14 KT):0
Visibility: greater than 7 mile(s):0
Sky conditions: mostly cloudy
Temperature: 48 F (9 C)
Dew Point: 33 F (1 C)
Relative Humidity: 57%
Pressure (altimeter): 30.18 in. Hg (1022 hPa)
ob: EPKK 211230Z 23014KT 9999 BKN040 09/01 Q1022
cycle: 12

Station Type Date Time Source
EPKK TAF 2019/02/21 12:33 UTC NOAA

TAF EPKK 211130Z 2112/2212 26014KT 9999 FEW033 BKN060
BECMG 2115/2118 4000 RA BR SCT008 BKN014 OVC033
TEMPO 2118/2203 27015G26KT 2500 RA BR BKN006 OVC014
BECMG 2203/2205 34007KT -RASN BR BKN005 OVC013
BECMG 2205/2207 06018G30KT 1500 SN BKN004 OVC010
BECMG 2207/2209 5000 -SN BR BKN007 BKN015
BECMG 2209/2211 CAVOK


Example: see airport list